createdAt,value
2018-09-28T07:45:19.872Z,13.70
2018-09-28T07:47:48.248Z,12.40
2018-09-28T07:50:16.406Z,16.07
2018-09-28T07:52:44.575Z,16.20
2018-09-28T07:55:12.751Z,21.20
2018-09-28T07:57:40.981Z,21.40
2018-09-28T08:00:09.134Z,21.10
2018-09-28T08:02:37.300Z,21.00
2018-09-28T08:05:05.486Z,20.00
2018-09-28T08:07:33.640Z,40.77
2018-09-28T08:10:01.898Z,30.83
2018-09-28T08:12:30.071Z,23.13
2018-09-28T08:14:58.245Z,24.73
2018-09-28T08:17:26.418Z,22.60
2018-09-28T08:19:54.592Z,33.13
2018-09-28T08:22:22.808Z,33.43
2018-09-28T08:24:50.964Z,29.23
2018-09-28T08:27:19.152Z,25.87
2018-09-28T08:29:47.331Z,29.70
2018-09-28T08:32:15.494Z,25.43
2018-09-28T08:34:43.652Z,32.60
2018-09-28T08:37:11.812Z,30.70
2018-09-28T08:39:39.985Z,34.40
2018-09-28T08:42:08.228Z,28.13
2018-09-28T08:44:36.345Z,36.47
2018-09-28T08:47:04.487Z,39.30
2018-09-28T08:49:32.656Z,35.10
2018-09-28T08:52:00.800Z,38.73
2018-09-28T08:54:28.959Z,44.63
2018-09-28T08:56:57.340Z,37.57
2018-09-28T08:59:25.513Z,42.17
2018-09-28T09:01:53.693Z,38.60
2018-09-28T09:04:21.872Z,40.03
2018-09-28T09:06:50.012Z,42.27
2018-09-28T09:09:18.175Z,40.30
2018-09-28T09:11:46.328Z,39.53
2018-09-28T09:14:14.480Z,49.57
2018-09-28T09:16:42.643Z,56.87
2018-09-28T09:19:10.780Z,60.80
2018-09-28T09:21:38.928Z,59.87
2018-09-28T09:24:07.244Z,66.60
2018-09-28T09:26:35.417Z,63.00
2018-09-28T09:29:03.561Z,71.60
2018-09-28T09:31:31.716Z,70.53
2018-09-28T09:33:59.864Z,69.03
2018-09-28T09:36:28.000Z,64.47
2018-09-28T09:38:56.148Z,76.37
2018-09-28T09:41:24.328Z,80.80
2018-09-28T09:43:52.497Z,86.93
2018-09-28T09:46:20.635Z,73.57
2018-09-28T09:48:48.782Z,89.37
2018-09-28T09:51:16.933Z,101.17
2018-09-28T09:53:45.124Z,97.10
2018-09-28T09:56:13.320Z,92.20
2018-09-28T09:58:41.500Z,118.33
2018-09-28T10:01:13.900Z,108.07
2018-09-28T10:03:47.788Z,112.50
2018-09-28T10:06:17.110Z,118.60
2018-09-28T10:08:46.274Z,109.40
2018-09-28T10:11:16.723Z,143.67
2018-09-28T10:13:45.004Z,131.50
2018-09-28T10:16:13.180Z,131.83
2018-09-28T10:18:41.359Z,139.30
2018-09-28T10:21:09.559Z,159.80
2018-09-28T10:23:37.765Z,154.33
2018-09-28T10:26:06.110Z,155.90
2018-09-28T10:28:34.325Z,147.27
2018-09-28T10:31:02.489Z,150.47
2018-09-28T10:33:30.741Z,145.73
2018-09-28T10:35:58.886Z,157.37
2018-09-28T10:38:27.073Z,158.17
2018-09-28T10:40:55.368Z,145.87
2018-09-28T10:43:23.469Z,168.87
2018-09-28T10:45:51.811Z,155.80
2018-09-28T10:48:19.956Z,162.10
2018-09-28T10:50:48.161Z,161.70
2018-09-28T10:53:16.338Z,171.80
2018-09-28T10:55:44.523Z,169.77
2018-09-28T10:58:12.749Z,178.10
2018-09-28T11:00:40.966Z,175.73
2018-09-28T11:03:09.175Z,170.67
2018-09-28T11:05:37.367Z,196.97
2018-09-28T11:08:05.535Z,177.73
2018-09-28T11:10:33.770Z,193.97
2018-09-28T11:13:01.943Z,189.63
2018-09-28T11:15:30.214Z,173.10
2018-09-28T11:17:58.370Z,184.53
2018-09-28T11:20:26.563Z,188.03
2018-09-28T11:22:54.809Z,191.80
2018-09-28T11:25:23.057Z,202.63
2018-09-28T11:27:51.346Z,200.10
2018-09-28T11:30:19.441Z,222.03
2018-09-28T11:32:47.645Z,203.20
2018-09-28T11:35:15.842Z,193.43
2018-09-28T11:37:44.183Z,188.97
2018-09-28T11:40:12.349Z,180.77
2018-09-28T11:42:40.952Z,178.67
2018-09-28T11:45:09.253Z,164.17
2018-09-28T11:47:37.473Z,157.70
2018-09-28T11:50:05.725Z,144.80
2018-09-28T11:52:33.930Z,138.73
2018-09-28T11:55:02.240Z,125.40
2018-09-28T11:57:30.480Z,117.40
2018-09-28T11:59:58.640Z,108.20
2018-09-28T12:02:26.810Z,97.77
2018-09-28T12:04:55.044Z,93.27
2018-09-28T12:07:23.218Z,73.70
2018-09-28T12:09:51.410Z,76.37
2018-09-28T12:12:19.651Z,67.53
2018-09-28T12:14:47.870Z,62.97
2018-09-28T12:17:16.059Z,55.30
2018-09-28T12:19:44.246Z,49.10
2018-09-28T12:22:12.471Z,43.63
2018-09-28T12:24:40.725Z,39.37
2018-09-28T12:27:08.902Z,50.90
2018-09-28T12:29:37.092Z,46.10
2018-09-28T12:32:05.305Z,39.97
2018-09-28T12:34:33.499Z,47.87
2018-09-28T12:37:01.696Z,47.30
2018-09-28T12:39:30.017Z,50.17
2018-09-28T12:41:58.162Z,37.50
2018-09-28T12:44:26.407Z,37.77
2018-09-28T12:46:54.596Z,41.87
2018-09-28T12:49:22.797Z,35.30
2018-09-28T12:51:51.022Z,23.80
2018-09-28T12:54:25.965Z,37.23
2018-09-28T12:56:54.082Z,24.73
2018-09-28T12:59:22.298Z,25.00
2018-09-28T13:01:50.532Z,25.20
2018-09-28T13:04:19.681Z,26.67
2018-09-28T13:06:49.379Z,24.90
2018-09-28T13:09:17.490Z,32.27
2018-09-28T13:11:45.815Z,25.63
2018-09-28T13:14:14.032Z,26.10
2018-09-28T13:16:42.305Z,23.77
2018-09-28T13:19:10.509Z,28.07
2018-09-28T13:21:38.756Z,31.93
2018-09-28T13:24:07.057Z,20.50
2018-09-28T13:26:35.230Z,28.30
2018-09-28T13:29:03.446Z,18.70
2018-09-28T13:31:31.735Z,23.83
2018-09-28T13:34:00.005Z,19.40
2018-09-28T13:36:28.237Z,17.17
2018-09-28T13:38:56.909Z,17.40
2018-09-28T13:41:25.170Z,15.00
2018-09-28T13:43:53.454Z,16.97
2018-09-28T13:46:21.781Z,13.87
2018-09-28T13:48:49.927Z,14.60
2018-09-28T13:51:18.058Z,16.53
2018-09-28T13:56:20.849Z,12.30
2018-09-28T13:58:49.031Z,18.67
2018-09-28T14:01:17.201Z,16.70
2018-09-28T14:03:45.417Z,13.23
2018-09-28T14:06:13.666Z,10.80
2018-09-28T14:08:41.883Z,5.17
2018-09-28T14:11:10.032Z,12.43
2018-09-28T14:13:38.260Z,5.03
2018-09-28T14:16:06.491Z,11.03
2018-09-28T14:18:34.714Z,11.57
2018-09-28T14:21:02.850Z,7.90
2018-09-28T14:23:31.010Z,6.23
2018-09-28T14:25:59.196Z,5.87
2018-09-28T14:28:27.454Z,4.63
2018-09-28T14:30:55.595Z,11.60
2018-09-28T14:33:23.823Z,8.23
2018-09-28T14:35:52.000Z,11.03
2018-09-28T14:38:20.241Z,11.97
2018-09-28T14:40:48.470Z,6.47
2018-09-28T14:43:16.611Z,7.70
2018-09-28T14:45:44.870Z,6.37
2018-09-28T14:48:13.084Z,3.80
2018-09-28T14:50:41.328Z,4.47
2018-09-28T14:53:09.485Z,8.60
2018-09-28T14:55:37.794Z,7.03
2018-09-28T14:58:06.020Z,15.77
2018-09-28T15:00:34.264Z,5.70
2018-09-28T15:03:02.441Z,13.73
2018-09-28T15:05:30.614Z,7.07
2018-09-28T15:07:58.796Z,5.77
2018-09-28T15:10:27.123Z,9.50
2018-09-28T15:12:55.165Z,16.53
2018-09-28T15:15:23.542Z,6.30
2018-09-28T15:17:51.681Z,14.03
2018-09-28T15:20:19.866Z,8.73
2018-09-28T15:22:48.051Z,5.00
2018-09-28T15:25:16.229Z,5.07
2018-09-28T15:27:44.479Z,6.47
2018-09-28T15:30:12.726Z,4.60
2018-09-28T15:32:40.870Z,4.90
2018-09-28T15:35:09.139Z,8.33
2018-09-28T15:37:37.313Z,4.23
2018-09-28T15:40:05.942Z,19.10
2018-09-28T15:42:34.237Z,7.97
2018-09-28T15:45:02.441Z,11.60
2018-09-28T15:47:30.641Z,6.13
2018-09-28T15:49:58.810Z,2.80
2018-09-28T15:52:26.990Z,10.93
2018-09-28T15:54:55.198Z,10.50
2018-09-28T15:57:23.372Z,8.60
2018-09-28T15:59:51.555Z,11.93
2018-09-28T16:02:19.743Z,5.63
2018-09-28T16:04:47.905Z,13.57
2018-09-28T16:07:16.102Z,7.43
2018-09-28T16:09:44.291Z,3.73
2018-09-28T16:12:12.575Z,9.23
2018-09-28T16:14:40.617Z,8.37
2018-09-28T16:17:08.784Z,7.43
2018-09-28T16:19:36.973Z,7.67
2018-09-28T16:22:05.125Z,11.63
2018-09-28T16:24:33.380Z,15.10
2018-09-28T16:27:01.478Z,12.40
2018-09-28T16:29:29.742Z,5.73
2018-09-28T16:31:57.950Z,11.17
2018-09-28T16:34:26.994Z,14.70
2018-09-28T16:36:55.154Z,8.67
2018-09-28T16:39:23.343Z,3.97
2018-09-28T16:41:51.509Z,8.77
2018-09-28T16:44:19.716Z,5.63
2018-09-28T16:46:47.877Z,7.03
2018-09-28T16:49:16.153Z,5.97
2018-09-28T16:51:44.329Z,5.87
2018-09-28T16:54:12.535Z,5.80
2018-09-28T16:56:40.700Z,13.00
2018-09-28T16:59:08.869Z,10.57
2018-09-28T17:01:37.082Z,6.80
2018-09-28T17:04:05.298Z,20.17
2018-09-28T17:06:33.482Z,21.27
2018-09-28T17:09:01.693Z,10.63
2018-09-28T17:11:29.834Z,16.77
2018-09-28T17:13:58.045Z,11.63
2018-09-28T17:16:26.324Z,9.20
2018-09-28T17:18:54.494Z,14.20
2018-09-28T17:21:22.673Z,14.00
2018-09-28T17:23:50.863Z,6.97
2018-09-28T17:26:19.111Z,9.60
2018-09-28T17:28:47.274Z,18.13
2018-09-28T17:31:15.461Z,12.40
2018-09-28T17:33:43.636Z,10.00
2018-09-28T17:36:11.869Z,11.30
2018-09-28T17:38:40.069Z,11.97
2018-09-28T17:41:08.370Z,27.27
2018-09-28T17:43:36.569Z,21.27
2018-09-28T17:46:04.737Z,12.87
2018-09-28T17:48:32.913Z,7.53
2018-09-28T17:51:01.079Z,14.33
2018-09-28T17:53:29.270Z,13.27
2018-09-28T17:55:57.457Z,17.30
2018-09-28T17:58:25.669Z,19.50
2018-09-28T18:00:53.879Z,12.13
2018-09-28T18:03:22.138Z,17.50
2018-09-28T18:05:50.377Z,20.60
2018-09-28T18:08:18.497Z,15.40
2018-09-28T18:10:46.695Z,17.40
2018-09-28T18:13:14.877Z,10.20
2018-09-28T18:15:43.061Z,24.03
2018-09-28T18:18:11.302Z,22.83
2018-09-28T18:20:39.428Z,19.80
2018-09-28T18:23:07.627Z,25.27
2018-09-28T18:25:35.800Z,13.03
2018-09-28T18:28:03.970Z,16.13
2018-09-28T18:30:32.157Z,15.13
2018-09-28T18:33:00.369Z,13.87
2018-09-28T18:35:28.538Z,19.83
2018-09-28T18:37:56.714Z,22.10
2018-09-28T18:40:25.454Z,18.77
2018-09-28T18:42:53.613Z,17.83
2018-09-28T18:45:21.821Z,14.40
2018-09-28T18:47:50.014Z,9.93
2018-09-28T18:50:18.206Z,20.73
2018-09-28T18:52:46.380Z,11.20
2018-09-28T18:55:14.621Z,11.53
2018-09-28T18:57:42.801Z,14.37
2018-09-28T19:00:10.975Z,16.17
2018-09-28T19:02:39.405Z,21.30
2018-09-28T19:05:07.813Z,25.03
2018-09-28T19:07:36.039Z,23.13
2018-09-28T19:10:04.814Z,9.73
2018-09-28T19:12:33.041Z,16.07
2018-09-28T19:15:01.557Z,21.57
2018-09-28T19:17:29.754Z,32.90
2018-09-28T19:19:57.905Z,21.70
2018-09-28T19:22:26.067Z,21.63
2018-09-28T19:24:54.253Z,18.87
2018-09-28T19:27:22.429Z,19.30
2018-09-28T19:29:50.610Z,23.70
2018-09-28T19:32:18.837Z,11.50
2018-09-28T19:34:47.114Z,19.77
2018-09-28T19:37:15.279Z,11.33
2018-09-28T19:39:43.516Z,22.47
2018-09-28T19:42:11.652Z,25.17
2018-09-28T19:44:39.814Z,9.47
2018-09-28T19:47:08.002Z,19.37
2018-09-28T19:49:36.168Z,20.23
2018-09-28T19:52:04.345Z,17.60
2018-09-28T19:54:32.515Z,15.47
2018-09-28T19:57:00.730Z,18.93
2018-09-28T19:59:28.898Z,14.57
2018-09-28T20:01:57.073Z,19.83
2018-09-28T20:04:25.241Z,23.70
2018-09-28T20:06:53.425Z,30.53
2018-09-28T20:09:21.609Z,38.73
2018-09-28T20:11:49.799Z,17.60
2018-09-28T20:14:17.990Z,23.83
2018-09-28T20:16:46.144Z,20.30
2018-09-28T20:19:14.331Z,20.70
2018-09-28T20:21:42.493Z,10.97
2018-09-28T20:24:10.781Z,15.87
2018-09-28T20:26:38.949Z,13.23
2018-09-28T20:29:10.330Z,13.37
2018-09-28T20:31:38.517Z,14.43
2018-09-28T20:34:06.793Z,16.47
2018-09-28T20:36:34.964Z,11.50
2018-09-28T20:39:03.644Z,20.67
2018-09-28T20:41:31.809Z,12.10
2018-09-28T20:43:59.981Z,23.33
2018-09-28T20:46:28.225Z,16.90
2018-09-28T20:48:56.432Z,10.07
2018-09-28T20:51:24.582Z,12.13
2018-09-28T20:53:52.761Z,25.30
2018-09-28T20:56:21.032Z,21.93
2018-09-28T20:58:49.239Z,16.03
2018-09-28T21:01:17.393Z,16.70
2018-09-28T21:03:45.544Z,16.00
2018-09-28T21:06:13.709Z,14.13
2018-09-28T21:08:41.869Z,16.03
2018-09-28T21:11:10.015Z,11.10
2018-09-28T21:13:38.210Z,12.60
2018-09-28T21:16:06.619Z,22.00
2018-09-28T21:18:34.769Z,19.90
2018-09-28T21:21:02.955Z,17.70
2018-09-28T21:23:31.136Z,16.53
2018-09-28T21:25:59.301Z,10.33
2018-09-28T21:28:27.478Z,13.37
2018-09-28T21:30:55.654Z,8.80
2018-09-28T21:33:23.837Z,7.27
2018-09-28T21:35:51.989Z,5.57
2018-09-28T21:38:20.179Z,14.77
2018-09-28T21:40:48.790Z,16.20
2018-09-28T21:43:17.045Z,12.10
2018-09-28T21:45:45.212Z,13.83
2018-09-28T21:48:13.397Z,10.43
2018-09-28T21:50:41.562Z,9.70
2018-09-28T21:53:09.734Z,16.20
2018-09-28T21:55:37.883Z,14.60
2018-09-28T21:58:06.078Z,10.17
